Time;durP1;ratioP1;P1;durP2;ratioP2;P2;SDS_P1;SDS_P2;PMS_P1;PMS_P2;Temp;Humidity;BMP_temperature;BMP_pressure;BME280_temperature;BME280_humidity;BME280_pressure;Samples;Min_cycle;Max_cycle;Signal;HPM_P1;HPM_P2
2022/06/24 00:01:29;;;;;;;6.60;2.97;;;19.10;99.90;;;;;;5072779;28;20606;-75
2022/06/24 00:03:58;;;;;;;9.57;3.10;;;19.00;99.90;;;;;;5075645;28;20247;-74
2022/06/24 00:06:41;;;;;;;8.43;2.80;;;18.90;99.90;;;;;;5075721;28;20648;-75
2022/06/24 00:09:12;;;;;;;8.90;3.27;;;18.70;99.90;;;;;;5072629;28;20234;-75
2022/06/24 00:11:41;;;;;;;10.47;2.87;;;18.60;99.90;;;;;;5072470;28;20204;-75
2022/06/24 00:14:13;;;;;;;9.23;3.00;;;18.60;99.90;;;;;;5072098;28;20203;-77
2022/06/24 00:16:58;;;;;;;7.10;2.60;;;18.50;99.90;;;;;;5073027;28;20546;-76
2022/06/24 00:19:28;;;;;;;7.43;2.87;;;18.50;99.90;;;;;;5072038;28;20308;-75
2022/06/24 00:22:08;;;;;;;7.30;2.77;;;18.40;99.90;;;;;;5080158;28;20202;-77
2022/06/24 00:24:40;;;;;;;8.80;2.83;;;18.40;99.90;;;;;;5076395;28;20314;-76
2022/06/24 00:27:18;;;;;;;6.63;2.60;;;18.40;99.90;;;;;;5074231;28;20229;-76
2022/06/24 00:29:48;;;;;;;7.70;2.50;;;18.30;99.90;;;;;;5072019;28;20203;-76
2022/06/24 00:32:17;;;;;;;5.70;2.20;;;18.30;99.90;;;;;;5071663;28;20238;-77
2022/06/24 00:35:03;;;;;;;9.83;2.37;;;18.30;99.90;;;;;;5071825;28;20246;-77
2022/06/24 00:37:33;;;;;;;8.03;2.30;;;18.20;99.90;;;;;;5072666;28;20199;-76
2022/06/24 00:40:24;;;;;;;8.67;2.20;;;18.20;99.90;;;;;;5078671;28;20262;-77
2022/06/24 00:42:53;;;;;;;7.60;2.07;;;18.20;99.90;;;;;;5081727;28;20213;-77
2022/06/24 00:45:30;;;;;;;6.00;1.93;;;18.10;99.90;;;;;;5071644;28;20246;-76
2022/06/24 00:47:58;;;;;;;6.47;2.20;;;18.10;99.90;;;;;;5077159;28;20207;-78
2022/06/24 00:50:28;;;;;;;7.80;2.10;;;18.10;99.90;;;;;;5076594;28;20281;-76
2022/06/24 00:52:59;;;;;;;5.93;2.00;;;18.10;99.90;;;;;;5075699;28;20243;-79
2022/06/24 00:55:31;;;;;;;6.07;2.27;;;18.10;99.90;;;;;;5075558;28;20211;-74
2022/06/24 00:58:00;;;;;;;8.13;2.23;;;18.00;99.90;;;;;;5068712;28;20713;-76
2022/06/24 01:00:31;;;;;;;5.70;2.10;;;18.00;99.90;;;;;;5071021;28;20712;-78
2022/06/24 01:03:01;;;;;;;8.83;2.00;;;18.00;99.90;;;;;;5078728;28;20591;-77
2022/06/24 01:05:31;;;;;;;4.63;1.77;;;18.00;99.90;;;;;;5074762;28;20257;-74
2022/06/24 01:08:00;;;;;;;7.07;2.00;;;18.00;99.90;;;;;;5076585;28;20231;-77
2022/06/24 01:10:29;;;;;;;6.37;2.00;;;17.90;99.90;;;;;;5075901;28;20208;-75
2022/06/24 01:12:57;;;;;;;4.50;1.77;;;17.90;99.90;;;;;;5074117;28;20281;-75
2022/06/24 01:15:26;;;;;;;6.47;1.77;;;17.80;99.90;;;;;;5081548;28;20211;-76
2022/06/24 01:17:54;;;;;;;6.07;1.83;;;17.80;99.90;;;;;;5077402;28;20290;-76
2022/06/24 01:20:22;;;;;;;7.77;1.77;;;17.70;99.90;;;;;;5083656;28;20269;-75
2022/06/24 01:22:52;;;;;;;3.70;1.63;;;17.70;99.90;;;;;;5077687;28;20310;-77
2022/06/24 01:25:20;;;;;;;3.87;1.50;;;17.60;99.90;;;;;;5075090;28;20578;-80
2022/06/24 01:27:48;;;;;;;7.63;1.90;;;17.60;99.90;;;;;;5075155;28;20216;-78
2022/06/24 01:30:16;;;;;;;3.80;1.50;;;17.60;99.90;;;;;;5076930;28;20238;-79
2022/06/24 01:32:44;;;;;;;3.70;1.43;;;17.50;99.90;;;;;;5084349;28;20203;-79
2022/06/24 01:35:13;;;;;;;5.63;1.50;;;17.50;99.90;;;;;;5081163;28;20234;-79
2022/06/24 01:37:42;;;;;;;2.40;1.50;;;17.50;99.90;;;;;;5084156;28;20219;-78
2022/06/24 01:40:13;;;;;;;5.80;1.50;;;17.50;99.90;;;;;;5078631;28;20220;-77
2022/06/24 01:42:41;;;;;;;5.83;1.70;;;17.40;99.90;;;;;;5073979;28;20242;-78
2022/06/24 01:45:10;;;;;;;5.27;1.87;;;17.40;99.90;;;;;;5074644;28;20239;-78
2022/06/24 01:47:38;;;;;;;5.00;1.53;;;17.30;99.90;;;;;;5074484;28;20254;-79
2022/06/24 01:50:08;;;;;;;2.43;1.27;;;17.30;99.90;;;;;;5077235;28;20279;-80
2022/06/24 01:52:36;;;;;;;4.57;1.63;;;17.30;99.90;;;;;;5073792;28;20200;-79
2022/06/24 01:55:05;;;;;;;5.80;1.40;;;17.30;99.90;;;;;;5075910;28;20342;-76
2022/06/24 01:57:35;;;;;;;5.03;1.57;;;17.20;99.90;;;;;;5076788;28;20215;-77
2022/06/24 02:00:04;;;;;;;4.57;1.43;;;17.20;99.90;;;;;;5075279;28;20649;-77
2022/06/24 02:02:33;;;;;;;3.50;1.40;;;17.20;99.90;;;;;;5073837;28;20207;-79
2022/06/24 02:05:02;;;;;;;5.47;1.70;;;17.20;99.90;;;;;;5081276;28;20198;-80
2022/06/24 02:07:31;;;;;;;5.13;1.63;;;17.20;99.90;;;;;;5081164;28;20236;-77
2022/06/24 02:15:32;;;;;;;6.23;1.63;;;17.10;99.90;;;;;;5066923;28;20673;-79
2022/06/24 02:18:04;;;;;;;2.80;1.50;;;17.10;99.90;;;;;;5079679;28;20210;-78
2022/06/24 02:20:32;;;;;;;3.77;1.50;;;17.10;99.90;;;;;;5077785;28;20310;-79
2022/06/24 02:23:00;;;;;;;4.90;1.40;;;17.00;99.90;;;;;;5078653;28;20290;-76
2022/06/24 02:25:29;;;;;;;5.30;1.40;;;17.00;99.90;;;;;;5084446;28;20290;-78
2022/06/24 02:27:58;;;;;;;2.77;1.40;;;17.00;99.90;;;;;;5074406;28;20208;-78
2022/06/24 02:30:27;;;;;;;3.37;1.60;;;17.00;99.90;;;;;;5082516;28;20233;-75
2022/06/24 02:32:55;;;;;;;5.47;1.60;;;16.90;99.90;;;;;;5078279;28;20353;-79
2022/06/24 02:35:24;;;;;;;3.20;1.50;;;16.90;99.90;;;;;;5075582;28;20250;-78
2022/06/24 02:37:52;;;;;;;3.27;1.90;;;16.90;99.90;;;;;;5075214;28;20204;-78
2022/06/24 02:43:12;;;;;;;4.00;1.30;;;16.80;99.90;;;;;;5074670;28;20640;-77
2022/06/24 02:45:41;;;;;;;2.80;1.37;;;16.90;99.90;;;;;;5076787;28;20234;-74
2022/06/24 02:48:09;;;;;;;4.03;1.37;;;16.80;99.90;;;;;;5074315;28;20215;-79
2022/06/24 02:50:41;;;;;;;5.00;1.40;;;16.80;99.90;;;;;;5073677;28;20249;-77
2022/06/24 02:53:14;;;;;;;8.10;1.60;;;16.80;99.90;;;;;;5072539;28;20207;-79
2022/06/24 02:55:44;;;;;;;5.97;1.53;;;16.80;99.90;;;;;;5074754;28;20216;-78
2022/06/24 02:58:14;;;;;;;4.47;1.43;;;16.80;99.90;;;;;;5084046;28;20774;-79
2022/06/24 03:00:42;;;;;;;2.10;1.20;;;16.80;99.90;;;;;;5078993;28;20314;-79
2022/06/24 03:03:12;;;;;;;6.03;1.50;;;16.70;99.90;;;;;;5082043;28;20569;-78
2022/06/24 03:05:41;;;;;;;3.43;1.43;;;16.70;99.90;;;;;;5078087;28;20257;-76
2022/06/24 03:08:11;;;;;;;4.40;1.67;;;16.70;99.90;;;;;;5081436;28;20219;-80
2022/06/24 03:10:40;;;;;;;3.63;1.57;;;16.70;99.90;;;;;;5076422;28;20291;-80
2022/06/24 03:13:09;;;;;;;5.80;1.50;;;16.60;99.90;;;;;;5078527;28;20285;-79
2022/06/24 03:15:39;;;;;;;2.07;1.23;;;16.60;99.90;;;;;;5072538;28;20211;-79
2022/06/24 03:18:07;;;;;;;3.90;1.40;;;16.60;99.90;;;;;;5075096;28;20230;-79
2022/06/24 03:20:35;;;;;;;5.20;1.50;;;16.60;99.90;;;;;;5073886;28;20253;-79
2022/06/24 03:23:09;;;;;;;4.70;1.63;;;16.70;99.90;;;;;;5074732;28;20202;-80
2022/06/24 03:25:37;;;;;;;3.10;1.57;;;16.60;99.90;;;;;;5075610;28;20211;-79
2022/06/24 03:28:06;;;;;;;4.23;1.43;;;16.60;99.90;;;;;;5072334;28;20207;-79
2022/06/24 03:30:34;;;;;;;6.43;1.70;;;16.60;99.90;;;;;;5085070;28;20199;-79
2022/06/24 03:33:04;;;;;;;5.70;1.90;;;16.60;99.90;;;;;;5073859;28;20482;-78
2022/06/24 03:35:33;;;;;;;3.00;1.50;;;16.60;99.90;;;;;;5073831;28;20202;-78
2022/06/24 03:38:01;;;;;;;6.43;1.60;;;16.60;99.90;;;;;;5079153;28;20276;-77
2022/06/24 03:40:29;;;;;;;3.93;1.80;;;16.60;99.90;;;;;;5081658;28;20253;-76
2022/06/24 03:42:57;;;;;;;5.73;1.50;;;16.60;99.90;;;;;;5085161;28;20184;-76
2022/06/24 03:45:25;;;;;;;2.97;1.33;;;16.60;99.90;;;;;;5091250;28;20188;-74
2022/06/24 03:47:53;;;;;;;3.33;1.30;;;16.60;99.90;;;;;;5083831;28;20282;-76
2022/06/24 03:50:23;;;;;;;5.07;1.43;;;16.70;99.90;;;;;;5073199;28;20249;-79
2022/06/24 03:52:52;;;;;;;3.40;1.30;;;16.70;99.90;;;;;;5069289;28;20203;-77
2022/06/24 03:55:20;;;;;;;3.33;1.50;;;16.70;99.90;;;;;;5072332;28;20307;-74
2022/06/24 03:57:48;;;;;;;4.67;1.53;;;16.70;99.90;;;;;;5071706;28;20239;-78
2022/06/24 04:00:16;;;;;;;3.33;1.53;;;16.70;99.90;;;;;;5064738;28;20243;-78
2022/06/24 04:02:45;;;;;;;6.03;2.00;;;16.70;99.90;;;;;;5067961;28;20294;-81
2022/06/24 04:05:14;;;;;;;5.13;1.60;;;16.80;99.90;;;;;;5071639;28;20695;-75
2022/06/24 04:07:44;;;;;;;7.70;1.80;;;16.80;99.90;;;;;;5074534;28;20234;-78
2022/06/24 04:10:12;;;;;;;3.50;1.43;;;16.80;99.90;;;;;;5065520;28;20200;-78
2022/06/24 04:12:40;;;;;;;5.40;1.50;;;16.90;99.90;;;;;;5067306;28;20661;-80
2022/06/24 04:15:17;;;;;;;5.47;1.73;;;16.90;99.90;;;;;;5065746;28;20238;-80
2022/06/24 04:17:47;;;;;;;3.73;1.60;;;16.90;99.90;;;;;;5073053;28;20203;-79
2022/06/24 04:20:17;;;;;;;7.50;1.80;;;17.00;99.90;;;;;;5071133;28;20267;-80
2022/06/24 04:22:48;;;;;;;5.73;2.10;;;17.00;99.90;;;;;;5077568;28;20843;-73
2022/06/24 04:25:17;;;;;;;3.93;1.60;;;17.00;99.90;;;;;;5069078;28;20207;-78
2022/06/24 04:27:45;;;;;;;2.73;1.50;;;17.00;99.90;;;;;;5072358;28;20268;-78
2022/06/24 04:30:14;;;;;;;4.53;1.60;;;17.00;99.90;;;;;;5073098;28;20235;-79
2022/06/24 04:32:42;;;;;;;3.53;1.50;;;17.10;99.90;;;;;;5065339;28;20212;-74
2022/06/24 04:35:11;;;;;;;4.37;1.77;;;17.30;99.90;;;;;;5069743;28;20227;-79
2022/06/24 04:37:40;;;;;;;4.23;1.43;;;17.50;99.90;;;;;;5062126;28;20481;-77
2022/06/24 04:40:13;;;;;;;4.23;1.53;;;17.70;99.90;;;;;;5073870;28;20211;-79
2022/06/24 04:42:41;;;;;;;8.20;1.80;;;17.90;99.90;;;;;;5083479;28;20202;-79
2022/06/24 04:45:10;;;;;;;4.97;1.50;;;18.00;99.90;;;;;;5080549;28;20211;-77
2022/06/24 04:47:38;;;;;;;4.97;1.50;;;18.10;99.90;;;;;;5070992;28;20230;-77
2022/06/24 04:50:08;;;;;;;5.53;1.60;;;18.20;99.90;;;;;;5078028;28;20211;-79
2022/06/24 04:52:37;;;;;;;6.47;1.60;;;18.30;99.90;;;;;;5076639;28;20265;-79
2022/06/24 04:55:07;;;;;;;5.27;1.30;;;18.40;99.90;;;;;;5079097;28;20214;-77
2022/06/24 04:57:38;;;;;;;6.03;1.60;;;18.50;99.90;;;;;;5082446;28;20241;-78
2022/06/24 05:00:09;;;;;;;5.93;1.53;;;18.50;99.90;;;;;;5077647;28;20269;-78
2022/06/24 05:02:37;;;;;;;6.30;1.60;;;18.60;99.90;;;;;;5074435;28;20227;-79
2022/06/24 05:05:06;;;;;;;3.60;1.40;;;18.60;99.90;;;;;;5062742;28;20236;-78
2022/06/24 05:07:35;;;;;;;5.47;1.60;;;18.60;99.90;;;;;;5076530;28;20243;-74
2022/06/24 05:10:04;;;;;;;4.47;1.63;;;18.70;99.90;;;;;;5068524;28;20240;-78
2022/06/24 05:12:32;;;;;;;5.60;1.63;;;18.60;99.90;;;;;;5075131;28;20285;-77
2022/06/24 05:15:04;;;;;;;7.77;1.70;;;18.60;99.90;;;;;;5084676;28;20202;-75
2022/06/24 05:17:32;;;;;;;3.30;1.40;;;18.60;99.90;;;;;;5075938;28;20212;-76
2022/06/24 05:20:00;;;;;;;5.57;1.60;;;18.70;99.90;;;;;;5081798;28;20231;-75
2022/06/24 05:22:28;;;;;;;8.30;2.27;;;18.80;99.90;;;;;;5079810;28;20259;-74
2022/06/24 05:24:57;;;;;;;7.50;2.20;;;18.80;99.90;;;;;;5075906;28;20238;-75
2022/06/24 05:27:26;;;;;;;5.23;1.50;;;18.80;99.90;;;;;;5074266;28;20230;-75
2022/06/24 05:29:54;;;;;;;6.00;2.10;;;18.90;99.90;;;;;;5071663;28;20235;-75
2022/06/24 05:32:23;;;;;;;4.43;1.63;;;18.80;99.90;;;;;;5076021;28;20333;-75
2022/06/24 05:34:52;;;;;;;7.17;1.83;;;18.80;99.90;;;;;;5078129;28;20207;-75
2022/06/24 05:37:20;;;;;;;9.07;1.67;;;18.80;99.90;;;;;;5084794;28;20234;-76
2022/06/24 05:39:48;;;;;;;3.93;1.60;;;18.70;99.90;;;;;;5079978;28;20291;-76
2022/06/24 05:42:16;;;;;;;6.80;1.87;;;18.80;99.90;;;;;;5075696;28;20276;-77
2022/06/24 05:44:44;;;;;;;9.27;1.83;;;18.70;99.90;;;;;;5077379;28;20805;-77
2022/06/24 05:47:12;;;;;;;5.80;1.93;;;18.70;99.90;;;;;;5083183;28;20263;-76
2022/06/24 05:49:42;;;;;;;6.87;1.50;;;18.70;99.90;;;;;;5079673;28;20295;-77
2022/06/24 05:52:11;;;;;;;6.40;1.80;;;18.70;99.90;;;;;;5075022;28;20697;-74
2022/06/24 05:57:26;;;;;;;7.07;2.00;;;18.80;99.90;;;;;;5077766;28;20240;-76
2022/06/24 05:59:54;;;;;;;3.77;1.50;;;18.90;99.90;;;;;;5083336;28;20231;-76
2022/06/24 06:02:22;;;;;;;7.20;1.90;;;19.00;99.90;;;;;;5074636;28;20635;-75
2022/06/24 06:04:52;;;;;;;3.70;1.47;;;19.10;99.90;;;;;;5061293;28;20207;-77
2022/06/24 06:07:20;;;;;;;8.83;1.57;;;19.10;99.90;;;;;;5072723;28;20242;-76
2022/06/24 06:09:48;;;;;;;5.07;1.70;;;19.20;99.90;;;;;;5086827;28;20297;-76
2022/06/24 06:12:16;;;;;;;2.87;1.53;;;19.30;99.90;;;;;;5069118;28;20246;-75
2022/06/24 06:14:45;;;;;;;5.30;1.63;;;19.50;99.90;;;;;;5077941;28;20679;-75
2022/06/24 06:17:14;;;;;;;5.27;1.47;;;20.10;99.90;;;;;;5074392;28;20203;-77
2022/06/24 06:19:42;;;;;;;3.93;1.40;;;20.90;99.90;;;;;;5077323;28;20215;-78
2022/06/24 06:22:11;;;;;;;5.73;1.40;;;21.90;99.90;;;;;;5077570;28;20219;-74
2022/06/24 06:24:39;;;;;;;6.73;1.47;;;23.40;99.90;;;;;;5082756;28;20203;-76
2022/06/24 06:27:10;;;;;;;3.93;1.30;;;24.40;99.90;;;;;;5083963;28;20207;-76
2022/06/24 06:29:38;;;;;;;5.07;1.37;;;25.20;99.90;;;;;;5085313;28;20210;-76
2022/06/24 06:32:06;;;;;;;6.17;1.53;;;25.40;99.90;;;;;;5094644;28;20215;-77
2022/06/24 06:34:35;;;;;;;4.40;1.43;;;24.90;99.90;;;;;;5098049;28;20208;-75
2022/06/24 06:37:03;;;;;;;5.83;1.60;;;25.00;99.90;;;;;;5092326;28;20222;-76
2022/06/24 06:39:33;;;;;;;5.43;1.30;;;24.30;99.90;;;;;;5085477;28;20207;-77
2022/06/24 06:42:01;;;;;;;4.43;1.50;;;23.80;99.90;;;;;;5093367;28;20234;-75
2022/06/24 06:44:29;;;;;;;5.33;1.80;;;22.90;99.90;;;;;;5080602;28;20207;-75
2022/06/24 06:46:57;;;;;;;4.40;1.60;;;22.30;99.90;;;;;;5080090;28;20265;-77
2022/06/24 06:49:26;;;;;;;7.97;2.10;;;21.90;99.90;;;;;;5086317;28;20670;-76
2022/06/24 06:51:55;;;;;;;4.50;1.47;;;21.60;99.90;;;;;;5078697;28;20300;-79
2022/06/24 06:54:23;;;;;;;5.13;1.40;;;21.30;99.90;;;;;;5069574;28;20239;-77
2022/06/24 06:56:52;;;;;;;4.60;1.50;;;21.00;99.90;;;;;;5084360;28;20314;-73
2022/06/24 06:59:21;;;;;;;6.00;1.70;;;20.90;99.90;;;;;;5084511;28;20238;-78
2022/06/24 07:01:49;;;;;;;6.43;1.80;;;20.80;99.90;;;;;;5083007;28;20227;-76
2022/06/24 07:04:21;;;;;;;7.77;1.80;;;20.70;99.90;;;;;;5082301;28;20238;-74
2022/06/24 07:06:53;;;;;;;5.67;1.83;;;20.60;99.90;;;;;;5081351;28;20211;-74
2022/06/24 07:09:21;;;;;;;4.90;1.47;;;20.70;99.90;;;;;;5065497;28;20646;-74
2022/06/24 07:11:49;;;;;;;5.43;1.40;;;20.80;99.90;;;;;;5077108;28;20215;-74
2022/06/24 07:14:19;;;;;;;3.50;1.40;;;20.90;99.90;;;;;;5074739;28;20658;-74
2022/06/24 07:16:48;;;;;;;6.53;1.60;;;21.00;99.90;;;;;;5078165;28;20203;-75
2022/06/24 07:19:16;;;;;;;7.93;1.50;;;21.10;99.90;;;;;;5073867;28;20257;-75
2022/06/24 07:21:44;;;;;;;7.07;1.43;;;21.20;99.90;;;;;;5074064;28;20322;-76
2022/06/24 07:24:15;;;;;;;4.63;1.40;;;21.80;99.90;;;;;;5066151;28;20270;-78
2022/06/24 07:26:43;;;;;;;5.10;1.47;;;22.40;99.90;;;;;;5070990;28;20208;-78
2022/06/24 07:29:13;;;;;;;6.23;2.03;;;22.50;99.90;;;;;;5072653;28;20215;-77
2022/06/24 07:31:42;;;;;;;5.37;1.70;;;22.90;99.90;;;;;;5073599;28;20327;-77
2022/06/24 07:34:11;;;;;;;5.90;1.73;;;23.60;99.90;;;;;;5069212;28;20725;-75
2022/06/24 07:36:39;;;;;;;5.27;1.50;;;25.30;99.90;;;;;;5074417;28;20261;-76
2022/06/24 07:39:07;;;;;;;3.72;1.58;;;27.00;99.90;;;;;;5074518;28;20230;-76
2022/06/24 07:41:36;;;;;;;5.22;1.60;;;28.80;99.90;;;;;;5063459;28;20219;-77
2022/06/24 07:44:04;;;;;;;5.45;1.80;;;29.50;99.90;;;;;;5069269;28;20274;-77
2022/06/24 07:46:32;;;;;;;6.30;1.52;;;28.70;99.90;;;;;;5071190;28;20257;-75
2022/06/24 07:49:06;;;;;;;3.58;1.50;;;27.90;99.90;;;;;;5071647;28;20211;-76
2022/06/24 07:51:35;;;;;;;5.70;1.67;;;27.20;99.90;;;;;;5077539;28;20262;-74
2022/06/24 07:54:05;;;;;;;5.05;1.67;;;25.80;99.90;;;;;;5079230;28;20261;-76
2022/06/24 07:59:19;;;;;;;4.27;1.60;;;25.20;99.90;;;;;;5074154;28;20257;-76
2022/06/24 08:01:48;;;;;;;7.40;1.87;;;24.70;99.90;;;;;;5074929;28;20211;-75
2022/06/24 08:04:18;;;;;;;3.70;1.70;;;24.10;99.90;;;;;;5077958;28;20265;-78
2022/06/24 08:06:49;;;;;;;4.93;1.43;;;23.80;99.90;;;;;;5076044;28;20203;-74
2022/06/24 08:09:18;;;;;;;8.47;1.83;;;23.70;99.90;;;;;;5074179;28;20208;-74
2022/06/24 08:11:47;;;;;;;5.27;1.60;;;23.50;99.90;;;;;;5071280;28;20257;-76
2022/06/24 08:14:16;;;;;;;6.47;1.77;;;23.20;99.90;;;;;;5073270;28;20622;-74
2022/06/24 08:16:47;;;;;;;4.70;1.63;;;22.90;99.90;;;;;;5072875;28;20669;-78
2022/06/24 08:19:17;;;;;;;4.60;1.40;;;22.90;99.90;;;;;;5071325;28;20737;-78
2022/06/24 08:21:45;;;;;;;5.10;1.57;;;22.90;99.90;;;;;;5071570;28;20273;-76
2022/06/24 08:24:14;;;;;;;5.07;1.50;;;22.90;99.90;;;;;;5078425;28;20227;-75
2022/06/24 08:26:42;;;;;;;3.37;1.50;;;22.90;99.90;;;;;;5074931;28;20211;-79
2022/06/24 08:29:11;;;;;;;4.67;1.80;;;23.00;99.90;;;;;;5073692;28;20265;-79
2022/06/24 08:31:40;;;;;;;5.87;1.60;;;23.30;99.90;;;;;;5072438;28;20208;-74
2022/06/24 08:34:09;;;;;;;4.90;1.80;;;23.60;99.90;;;;;;5063530;28;20602;-78
2022/06/24 08:36:38;;;;;;;5.77;1.57;;;23.80;99.90;;;;;;5070755;28;20652;-76
2022/06/24 08:39:07;;;;;;;4.70;1.70;;;24.00;99.90;;;;;;5073405;28;20211;-74
2022/06/24 08:41:41;;;;;;;6.63;1.70;;;24.00;99.90;;;;;;5072295;28;20215;-75
2022/06/24 08:44:13;;;;;;;5.07;1.63;;;24.20;99.90;;;;;;5074376;28;20227;-74
2022/06/24 08:46:42;;;;;;;5.53;1.57;;;24.70;99.90;;;;;;5072685;28;20207;-76
2022/06/24 08:49:10;;;;;;;6.37;1.80;;;25.10;99.90;;;;;;5072040;28;20567;-78
2022/06/24 08:51:42;;;;;;;6.60;1.77;;;25.10;99.90;;;;;;5070920;28;20235;-74
2022/06/24 08:54:12;;;;;;;4.30;1.40;;;24.90;99.90;;;;;;5077889;28;20567;-75
2022/06/24 08:56:55;;;;;;;10.03;1.90;;;24.60;99.90;;;;;;5074809;28;20207;-77
2022/06/24 08:59:24;;;;;;;6.40;1.60;;;24.40;99.90;;;;;;5076221;28;20203;-75
2022/06/24 09:01:54;;;;;;;6.00;1.90;;;24.40;99.90;;;;;;5073045;28;20207;-75
2022/06/24 09:04:23;;;;;;;4.57;1.80;;;23.90;99.90;;;;;;5074700;28;20241;-75
2022/06/24 09:06:53;;;;;;;5.50;1.80;;;23.40;99.90;;;;;;5072266;28;20203;-79
2022/06/24 09:09:25;;;;;;;4.07;1.90;;;23.30;99.90;;;;;;5072502;28;20235;-80
2022/06/24 09:11:56;;;;;;;6.33;1.70;;;22.90;99.90;;;;;;5070858;28;20211;-80
2022/06/24 09:14:43;;;;;;;5.97;1.93;;;22.70;99.90;;;;;;5070807;28;20224;-79
2022/06/24 09:17:12;;;;;;;5.40;1.70;;;22.50;99.90;;;;;;5075527;28;20569;-79
2022/06/24 09:19:41;;;;;;;6.97;1.70;;;22.20;99.90;;;;;;5076840;28;20293;-76
2022/06/24 09:22:11;;;;;;;5.80;2.20;;;22.10;99.90;;;;;;5075871;28;20235;-81
2022/06/24 09:24:47;;;;;;;4.80;1.60;;;21.90;99.90;;;;;;5077014;28;20224;-77
2022/06/24 09:27:15;;;;;;;7.07;1.57;;;21.90;99.90;;;;;;5075825;28;20573;-78
2022/06/24 09:29:49;;;;;;;3.23;1.50;;;21.70;99.90;;;;;;5074773;28;20215;-76
2022/06/24 09:32:18;;;;;;;6.77;1.80;;;21.70;99.90;;;;;;5081025;28;20280;-76
2022/06/24 09:35:00;;;;;;;5.30;1.67;;;21.60;99.90;;;;;;5077509;28;20207;-77
2022/06/24 09:37:41;;;;;;;3.53;1.80;;;21.60;99.90;;;;;;5079128;28;20250;-78
2022/06/24 09:40:25;;;;;;;5.20;1.83;;;21.70;99.90;;;;;;5071393;28;20257;-80
2022/06/24 09:42:58;;;;;;;4.43;1.60;;;21.70;99.90;;;;;;5072268;28;20782;-78
2022/06/24 09:45:28;;;;;;;3.10;1.70;;;21.60;99.90;;;;;;5076313;28;20212;-76
2022/06/24 09:47:58;;;;;;;4.97;1.60;;;21.70;99.90;;;;;;5075692;28;20684;-74
2022/06/24 09:50:27;;;;;;;5.47;1.90;;;21.90;99.90;;;;;;5074597;28;20239;-73
2022/06/24 09:52:57;;;;;;;4.87;1.60;;;22.20;99.90;;;;;;5075931;28;20204;-76
2022/06/24 09:55:26;;;;;;;5.73;1.87;;;22.70;99.90;;;;;;5076041;28;20828;-76
2022/06/24 09:57:57;;;;;;;4.03;1.87;;;23.80;99.90;;;;;;5075345;28;20215;-76
2022/06/24 10:00:43;;;;;;;5.17;1.60;;;25.00;99.90;;;;;;5074607;28;20612;-77
2022/06/24 10:03:13;;;;;;;4.77;1.43;;;25.70;99.90;;;;;;5073346;28;20227;-75
2022/06/24 10:05:43;;;;;;;5.53;1.70;;;26.40;99.90;;;;;;5070317;28;20210;-80
2022/06/24 10:08:15;;;;;;;6.23;1.70;;;26.70;99.90;;;;;;5074319;28;20652;-75
2022/06/24 10:10:47;;;;;;;6.35;1.75;;;26.90;99.90;;;;;;5079408;28;20211;-77
2022/06/24 10:13:23;;;;;;;5.15;1.80;;;27.40;99.90;;;;;;5076221;28;20644;-76
2022/06/24 10:15:52;;;;;;;3.13;1.40;;;28.10;99.90;;;;;;5078847;28;20203;-74
2022/06/24 10:18:26;;;;;;;4.22;1.73;;;27.70;99.90;;;;;;5072075;28;20258;-76
2022/06/24 10:20:59;;;;;;;6.93;2.67;;;27.70;99.90;;;;;;5072993;28;20206;-75
2022/06/24 10:23:43;;;;;;;11.10;4.57;;;27.60;99.90;;;;;;5074414;28;20253;-75
2022/06/24 10:26:16;;;;;;;4.93;1.88;;;27.80;99.90;;;;;;5076203;28;20365;-76
2022/06/24 10:29:23;;;;;;;5.68;2.10;;;28.10;99.90;;;;;;5082968;28;20290;-74
2022/06/24 10:32:06;;;;;;;6.20;1.98;;;27.60;99.90;;;;;;5078965;28;20207;-75
2022/06/24 10:34:43;;;;;;;4.82;1.85;;;28.00;99.90;;;;;;5077604;28;20196;-75
2022/06/24 10:37:29;;;;;;;8.98;2.08;;;27.70;99.90;;;;;;5080895;28;20252;-74
2022/06/24 10:40:01;;;;;;;5.68;1.60;;;27.90;99.90;;;;;;5076233;28;20230;-76
2022/06/24 10:42:33;;;;;;;6.28;1.80;;;28.10;99.90;;;;;;5078184;28;20234;-76
2022/06/24 10:45:08;;;;;;;5.43;2.05;;;28.60;99.90;;;;;;5075551;28;20234;-78
2022/06/24 10:47:41;;;;;;;8.73;2.10;;;28.90;99.90;;;;;;5076703;28;20200;-76
2022/06/24 10:50:14;;;;;;;5.78;1.73;;;29.30;99.90;;;;;;5074642;28;20208;-75
2022/06/24 10:53:00;;;;;;;6.97;2.10;;;28.80;99.90;;;;;;5073865;28;20203;-75
2022/06/24 10:55:39;;;;;;;5.72;1.80;;;28.30;99.90;;;;;;5067196;28;20214;-77
2022/06/24 10:58:10;;;;;;;4.38;1.80;;;27.80;99.90;;;;;;5074497;28;20211;-74
2022/06/24 11:00:51;;;;;;;6.00;1.90;;;27.90;99.90;;;;;;5079110;28;20249;-73
2022/06/24 11:03:37;;;;;;;5.60;2.40;;;27.30;99.90;;;;;;5075928;28;20203;-74
2022/06/24 11:06:05;;;;;;;8.13;2.92;;;27.30;99.90;;;;;;5079901;28;20540;-74
2022/06/24 11:08:38;;;;;;;7.70;2.23;;;27.10;99.90;;;;;;5078777;28;20266;-75
2022/06/24 11:11:24;;;;;;;6.47;2.10;;;27.40;99.90;;;;;;5078862;28;20774;-74
2022/06/24 11:13:52;;;;;;;6.57;2.28;;;27.60;99.90;;;;;;5076441;28;20249;-79
2022/06/24 11:16:21;;;;;;;10.80;2.27;;;27.50;99.90;;;;;;5078955;28;20288;-76
2022/06/24 11:18:51;;;;;;;5.10;2.03;;;27.50;99.90;;;;;;5075420;28;20242;-75
2022/06/24 11:21:19;;;;;;;6.87;1.97;;;27.40;99.90;;;;;;5077425;28;20219;-74
2022/06/24 11:23:49;;;;;;;4.77;2.00;;;27.30;99.90;;;;;;5078406;28;20223;-76
2022/06/24 11:26:19;;;;;;;8.43;2.00;;;27.10;99.90;;;;;;5076720;28;20668;-78
2022/06/24 11:28:52;;;;;;;6.10;1.83;;;26.90;99.90;;;;;;5076122;28;20203;-74
2022/06/24 11:31:22;;;;;;;6.93;1.93;;;26.80;99.90;;;;;;5075444;28;20257;-74
2022/06/24 11:33:52;;;;;;;5.27;1.73;;;27.20;99.90;;;;;;5077735;28;20203;-75
2022/06/24 11:36:21;;;;;;;6.00;2.00;;;27.20;99.90;;;;;;5074402;28;20207;-73
2022/06/24 11:38:53;;;;;;;7.20;2.10;;;27.20;99.90;;;;;;5076739;28;20203;-73
2022/06/24 11:41:25;;;;;;;8.17;2.37;;;27.10;99.90;;;;;;5073183;28;20654;-76
2022/06/24 11:44:13;;;;;;;6.10;1.87;;;27.10;99.90;;;;;;5072594;28;20685;-74
2022/06/24 11:46:48;;;;;;;6.07;1.90;;;26.90;99.90;;;;;;5072395;28;20317;-75
2022/06/24 11:49:16;;;;;;;5.67;2.00;;;26.60;99.90;;;;;;5083492;28;20198;-75
2022/06/24 11:51:46;;;;;;;7.03;1.87;;;26.60;99.90;;;;;;5079048;28;20207;-76
2022/06/24 11:54:15;;;;;;;6.93;2.20;;;26.50;99.90;;;;;;5081365;28;20257;-78
2022/06/24 11:56:45;;;;;;;6.47;1.70;;;26.40;99.90;;;;;;5078876;28;20261;-75
2022/06/24 11:59:13;;;;;;;7.60;2.00;;;26.40;99.90;;;;;;5078928;28;20282;-77
2022/06/24 12:01:47;;;;;;;4.83;1.93;;;26.40;99.90;;;;;;5076116;28;20210;-75
2022/06/24 12:04:17;;;;;;;5.57;1.83;;;26.70;99.90;;;;;;5077263;28;20211;-77
2022/06/24 12:06:47;;;;;;;7.13;2.10;;;27.20;99.90;;;;;;5076307;28;20211;-77
2022/06/24 12:09:17;;;;;;;6.00;1.80;;;27.70;99.90;;;;;;5074656;28;20238;-77
2022/06/24 12:11:47;;;;;;;6.57;2.00;;;28.00;99.90;;;;;;5073460;28;20207;-75
2022/06/24 12:14:18;;;;;;;6.67;1.60;;;28.00;99.90;;;;;;5073692;28;20211;-78
2022/06/24 12:17:00;;;;;;;6.47;1.80;;;28.10;99.90;;;;;;5073408;28;20396;-79
2022/06/24 12:19:31;;;;;;;6.43;1.67;;;28.50;99.90;;;;;;5072412;28;20211;-79
2022/06/24 12:22:09;;;;;;;3.27;1.67;;;28.20;99.90;;;;;;5071213;28;20199;-77
2022/06/24 12:24:39;;;;;;;4.40;1.50;;;28.00;99.90;;;;;;5078406;28;20266;-78
2022/06/24 12:27:10;;;;;;;6.80;1.53;;;28.10;99.50;;;;;;5075999;28;20249;-78
2022/06/24 12:29:40;;;;;;;4.30;1.57;;;28.00;99.90;;;;;;5073254;28;20253;-78
2022/06/24 12:32:14;;;;;;;5.93;1.50;;;28.10;99.90;;;;;;5073213;28;20204;-80
2022/06/24 12:34:45;;;;;;;4.40;1.40;;;28.30;99.90;;;;;;5072343;28;20254;-77
2022/06/24 12:37:14;;;;;;;3.97;1.33;;;28.00;99.90;;;;;;5071720;28;20199;-77
2022/06/24 12:39:43;;;;;;;5.63;1.50;;;27.70;97.90;;;;;;5078165;28;20246;-76
2022/06/24 12:42:17;;;;;;;4.70;1.47;;;27.80;99.80;;;;;;5078802;28;20231;-76
2022/06/24 12:44:48;;;;;;;5.97;1.70;;;27.30;98.50;;;;;;5079754;28;20231;-76
2022/06/24 12:53:00;;;;;;;3.30;1.37;;;27.30;99.90;;;;;;5078610;28;20203;-78
2022/06/24 12:55:29;;;;;;;4.47;1.47;;;27.40;99.90;;;;;;5075120;28;20641;-78
2022/06/24 12:57:59;;;;;;;3.43;1.20;;;27.20;99.60;;;;;;5079378;28;20246;-78
2022/06/24 13:00:28;;;;;;;4.33;1.20;;;27.20;99.90;;;;;;5078627;28;20207;-77
2022/06/24 13:02:59;;;;;;;4.60;1.43;;;26.90;99.90;;;;;;5078804;28;20203;-76
2022/06/24 13:05:28;;;;;;;3.07;1.30;;;26.40;99.90;;;;;;5077408;28;20219;-77
2022/06/24 13:07:57;;;;;;;4.40;1.40;;;26.30;99.90;;;;;;5077476;28;20549;-78
2022/06/24 13:10:25;;;;;;;4.40;1.60;;;26.30;99.90;;;;;;5075623;28;20250;-77
2022/06/24 13:12:54;;;;;;;6.37;1.40;;;26.20;99.90;;;;;;5077606;28;20202;-79
2022/06/24 13:15:24;;;;;;;4.13;1.37;;;26.10;99.90;;;;;;5085137;28;20641;-76
2022/06/24 13:17:53;;;;;;;5.43;1.53;;;25.50;99.90;;;;;;5082308;28;20553;-78
2022/06/24 13:20:21;;;;;;;5.00;1.20;;;25.30;99.90;;;;;;5085289;28;20257;-77
2022/06/24 13:22:49;;;;;;;2.70;1.33;;;25.20;99.90;;;;;;5085633;28;20208;-78